sensor_id;sensor_type;location;lat;lon;timestamp;P1;durP1;ratioP1;P2;durP2;ratioP2
11638;SDS011;5875;35.940;126.892;2023-12-22T00:00:05;0.33;;;0.33;;
11638;SDS011;5875;35.940;126.892;2023-12-22T00:02:33;0.20;;;0.20;;
11638;SDS011;5875;35.940;126.892;2023-12-22T00:05:00;4.13;;;3.73;;
11638;SDS011;5875;35.940;126.892;2023-12-22T00:07:28;0.90;;;0.87;;
11638;SDS011;5875;35.940;126.892;2023-12-22T00:09:55;0.47;;;0.47;;
11638;SDS011;5875;35.940;126.892;2023-12-22T00:12:22;0.20;;;0.20;;
11638;SDS011;5875;35.940;126.892;2023-12-22T00:14:50;0.30;;;0.30;;
11638;SDS011;5875;35.940;126.892;2023-12-22T00:17:17;0.10;;;0.10;;
11638;SDS011;5875;35.940;126.892;2023-12-22T00:19:44;1.03;;;0.90;;
11638;SDS011;5875;35.940;126.892;2023-12-22T00:22:11;3.40;;;1.90;;
11638;SDS011;5875;35.940;126.892;2023-12-22T00:24:38;0.83;;;0.77;;
11638;SDS011;5875;35.940;126.892;2023-12-22T00:27:05;1.83;;;1.10;;
11638;SDS011;5875;35.940;126.892;2023-12-22T00:29:35;2.63;;;1.73;;
11638;SDS011;5875;35.940;126.892;2023-12-22T00:32:02;2.40;;;2.30;;
11638;SDS011;5875;35.940;126.892;2023-12-22T00:34:30;0.33;;;0.33;;
11638;SDS011;5875;35.940;126.892;2023-12-22T00:36:57;1.20;;;1.13;;
11638;SDS011;5875;35.940;126.892;2023-12-22T00:39:25;0.97;;;0.97;;
11638;SDS011;5875;35.940;126.892;2023-12-22T00:41:53;2.77;;;1.93;;
11638;SDS011;5875;35.940;126.892;2023-12-22T00:44:23;1.20;;;1.20;;
11638;SDS011;5875;35.940;126.892;2023-12-22T00:46:52;1.50;;;0.97;;
11638;SDS011;5875;35.940;126.892;2023-12-22T00:49:20;3.60;;;3.30;;
11638;SDS011;5875;35.940;126.892;2023-12-22T00:51:47;1.50;;;1.30;;
11638;SDS011;5875;35.940;126.892;2023-12-22T00:54:14;5.83;;;2.30;;
11638;SDS011;5875;35.940;126.892;2023-12-22T00:56:41;1.23;;;1.07;;
11638;SDS011;5875;35.940;126.892;2023-12-22T00:59:08;0.30;;;0.30;;
11638;SDS011;5875;35.940;126.892;2023-12-22T01:01:36;4.03;;;2.17;;
11638;SDS011;5875;35.940;126.892;2023-12-22T01:04:03;1.37;;;1.30;;
11638;SDS011;5875;35.940;126.892;2023-12-22T01:06:30;4.27;;;0.87;;
11638;SDS011;5875;35.940;126.892;2023-12-22T01:09:00;0.73;;;0.73;;
11638;SDS011;5875;35.940;126.892;2023-12-22T01:11:27;0.37;;;0.37;;
11638;SDS011;5875;35.940;126.892;2023-12-22T01:13:54;1.23;;;1.13;;
11638;SDS011;5875;35.940;126.892;2023-12-22T01:16:21;1.10;;;0.90;;
11638;SDS011;5875;35.940;126.892;2023-12-22T01:18:49;0.67;;;0.67;;
11638;SDS011;5875;35.940;126.892;2023-12-22T01:21:17;0.33;;;0.33;;
11638;SDS011;5875;35.940;126.892;2023-12-22T01:23:44;0.27;;;0.27;;
11638;SDS011;5875;35.940;126.892;2023-12-22T01:26:11;0.23;;;0.23;;
11638;SDS011;5875;35.940;126.892;2023-12-22T01:28:38;1.23;;;1.13;;
11638;SDS011;5875;35.940;126.892;2023-12-22T01:31:05;1.00;;;1.00;;
11638;SDS011;5875;35.940;126.892;2023-12-22T01:33:32;0.50;;;0.50;;
11638;SDS011;5875;35.940;126.892;2023-12-22T01:36:00;0.10;;;0.10;;
11638;SDS011;5875;35.940;126.892;2023-12-22T01:38:27;0.30;;;0.30;;
11638;SDS011;5875;35.940;126.892;2023-12-22T01:40:54;0.40;;;0.40;;
11638;SDS011;5875;35.940;126.892;2023-12-22T01:43:21;0.07;;;0.07;;
11638;SDS011;5875;35.940;126.892;2023-12-22T01:45:50;1.30;;;1.20;;
11638;SDS011;5875;35.940;126.892;2023-12-22T01:48:23;0.50;;;0.50;;
11638;SDS011;5875;35.940;126.892;2023-12-22T01:50:51;0.70;;;0.70;;
11638;SDS011;5875;35.940;126.892;2023-12-22T01:53:19;0.40;;;0.40;;
11638;SDS011;5875;35.940;126.892;2023-12-22T01:55:48;0.30;;;0.30;;
11638;SDS011;5875;35.940;126.892;2023-12-22T01:58:17;0.30;;;0.30;;
11638;SDS011;5875;35.940;126.892;2023-12-22T02:00:45;0.43;;;0.27;;
11638;SDS011;5875;35.940;126.892;2023-12-22T02:03:13;0.50;;;0.50;;
11638;SDS011;5875;35.940;126.892;2023-12-22T02:05:41;1.17;;;0.93;;
11638;SDS011;5875;35.940;126.892;2023-12-22T02:08:12;0.47;;;0.47;;
11638;SDS011;5875;35.940;126.892;2023-12-22T02:10:41;1.10;;;1.03;;
11638;SDS011;5875;35.940;126.892;2023-12-22T02:13:08;1.00;;;0.70;;
11638;SDS011;5875;35.940;126.892;2023-12-22T02:15:35;1.23;;;1.23;;
11638;SDS011;5875;35.940;126.892;2023-12-22T02:18:06;90.33;;;58.73;;
11638;SDS011;5875;35.940;126.892;2023-12-22T02:20:40;77.60;;;48.00;;
11638;SDS011;5875;35.940;126.892;2023-12-22T02:23:09;12.53;;;11.37;;
11638;SDS011;5875;35.940;126.892;2023-12-22T02:25:37;7.73;;;4.93;;
11638;SDS011;5875;35.940;126.892;2023-12-22T02:28:05;2.17;;;1.97;;
11638;SDS011;5875;35.940;126.892;2023-12-22T02:33:23;2.37;;;2.07;;
11638;SDS011;5875;35.940;126.892;2023-12-22T02:35:54;2.67;;;2.47;;
11638;SDS011;5875;35.940;126.892;2023-12-22T02:38:29;1.00;;;1.00;;
11638;SDS011;5875;35.940;126.892;2023-12-22T02:40:57;1.70;;;1.60;;
11638;SDS011;5875;35.940;126.892;2023-12-22T02:43:25;1.73;;;1.63;;
11638;SDS011;5875;35.940;126.892;2023-12-22T02:45:52;2.10;;;1.90;;
11638;SDS011;5875;35.940;126.892;2023-12-22T02:48:19;3.43;;;2.33;;
11638;SDS011;5875;35.940;126.892;2023-12-22T02:50:49;1.70;;;1.27;;
11638;SDS011;5875;35.940;126.892;2023-12-22T02:53:17;7.07;;;4.77;;
11638;SDS011;5875;35.940;126.892;2023-12-22T02:55:46;4.23;;;3.83;;
11638;SDS011;5875;35.940;126.892;2023-12-22T02:58:14;1.70;;;1.60;;
11638;SDS011;5875;35.940;126.892;2023-12-22T03:00:41;1.97;;;1.87;;
11638;SDS011;5875;35.940;126.892;2023-12-22T03:03:08;1.60;;;1.50;;
11638;SDS011;5875;35.940;126.892;2023-12-22T03:05:35;6.60;;;5.57;;
11638;SDS011;5875;35.940;126.892;2023-12-22T03:08:02;4.53;;;3.77;;
11638;SDS011;5875;35.940;126.892;2023-12-22T03:10:30;16.47;;;6.30;;
11638;SDS011;5875;35.940;126.892;2023-12-22T03:12:57;19.97;;;11.10;;
11638;SDS011;5875;35.940;126.892;2023-12-22T03:15:24;5.20;;;4.73;;
11638;SDS011;5875;35.940;126.892;2023-12-22T03:17:52;16.83;;;7.70;;
11638;SDS011;5875;35.940;126.892;2023-12-22T03:20:19;7.67;;;7.03;;
11638;SDS011;5875;35.940;126.892;2023-12-22T03:22:46;7.03;;;6.33;;
11638;SDS011;5875;35.940;126.892;2023-12-22T03:25:13;3.47;;;3.17;;
11638;SDS011;5875;35.940;126.892;2023-12-22T03:27:40;3.27;;;2.90;;
11638;SDS011;5875;35.940;126.892;2023-12-22T03:30:08;0.90;;;0.90;;
11638;SDS011;5875;35.940;126.892;2023-12-22T03:32:35;1.00;;;1.00;;
11638;SDS011;5875;35.940;126.892;2023-12-22T03:35:02;3.00;;;2.37;;
11638;SDS011;5875;35.940;126.892;2023-12-22T03:37:30;15.87;;;7.57;;
11638;SDS011;5875;35.940;126.892;2023-12-22T03:39:57;8.40;;;4.90;;
11638;SDS011;5875;35.940;126.892;2023-12-22T03:42:26;10.07;;;3.87;;
11638;SDS011;5875;35.940;126.892;2023-12-22T03:44:54;30.67;;;13.03;;
11638;SDS011;5875;35.940;126.892;2023-12-22T03:47:21;27.40;;;13.57;;
11638;SDS011;5875;35.940;126.892;2023-12-22T03:49:48;7.33;;;5.77;;
11638;SDS011;5875;35.940;126.892;2023-12-22T03:52:18;13.10;;;6.67;;
11638;SDS011;5875;35.940;126.892;2023-12-22T03:54:45;5.80;;;5.30;;
11638;SDS011;5875;35.940;126.892;2023-12-22T03:57:15;19.07;;;10.43;;
11638;SDS011;5875;35.940;126.892;2023-12-22T03:59:42;5.77;;;4.93;;
11638;SDS011;5875;35.940;126.892;2023-12-22T04:02:09;15.33;;;7.70;;
11638;SDS011;5875;35.940;126.892;2023-12-22T04:04:39;7.10;;;3.37;;
11638;SDS011;5875;35.940;126.892;2023-12-22T04:07:06;3.57;;;3.27;;
11638;SDS011;5875;35.940;126.892;2023-12-22T04:09:36;16.33;;;7.13;;
11638;SDS011;5875;35.940;126.892;2023-12-22T04:12:06;20.37;;;14.27;;
11638;SDS011;5875;35.940;126.892;2023-12-22T04:14:33;14.03;;;8.60;;
11638;SDS011;5875;35.940;126.892;2023-12-22T04:17:03;7.50;;;6.03;;
11638;SDS011;5875;35.940;126.892;2023-12-22T04:19:30;6.27;;;5.00;;
11638;SDS011;5875;35.940;126.892;2023-12-22T04:21:57;6.53;;;5.70;;
11638;SDS011;5875;35.940;126.892;2023-12-22T04:24:24;3.00;;;2.80;;
11638;SDS011;5875;35.940;126.892;2023-12-22T04:26:51;10.97;;;3.43;;
11638;SDS011;5875;35.940;126.892;2023-12-22T04:29:19;3.10;;;2.50;;
11638;SDS011;5875;35.940;126.892;2023-12-22T04:31:46;2.43;;;2.23;;
11638;SDS011;5875;35.940;126.892;2023-12-22T04:34:16;2.73;;;2.53;;
11638;SDS011;5875;35.940;126.892;2023-12-22T04:36:46;2.70;;;2.37;;
11638;SDS011;5875;35.940;126.892;2023-12-22T04:39:13;0.97;;;0.97;;
11638;SDS011;5875;35.940;126.892;2023-12-22T04:41:43;1.97;;;1.80;;
11638;SDS011;5875;35.940;126.892;2023-12-22T04:44:13;1.47;;;1.27;;
11638;SDS011;5875;35.940;126.892;2023-12-22T04:46:40;2.37;;;1.37;;
11638;SDS011;5875;35.940;126.892;2023-12-22T04:49:07;1.20;;;1.20;;
11638;SDS011;5875;35.940;126.892;2023-12-22T04:51:37;2.00;;;1.90;;
11638;SDS011;5875;35.940;126.892;2023-12-22T04:54:04;1.60;;;1.50;;
11638;SDS011;5875;35.940;126.892;2023-12-22T04:56:31;3.13;;;2.73;;
11638;SDS011;5875;35.940;126.892;2023-12-22T04:58:58;7.90;;;5.63;;
11638;SDS011;5875;35.940;126.892;2023-12-22T05:01:25;1.63;;;1.53;;
11638;SDS011;5875;35.940;126.892;2023-12-22T05:03:52;11.57;;;7.17;;
11638;SDS011;5875;35.940;126.892;2023-12-22T05:06:20;2.73;;;2.00;;
11638;SDS011;5875;35.940;126.892;2023-12-22T05:08:47;1.90;;;1.80;;
11638;SDS011;5875;35.940;126.892;2023-12-22T05:11:14;5.73;;;3.30;;
11638;SDS011;5875;35.940;126.892;2023-12-22T05:13:41;2.53;;;2.17;;
11638;SDS011;5875;35.940;126.892;2023-12-22T05:16:10;2.33;;;2.17;;
11638;SDS011;5875;35.940;126.892;2023-12-22T05:18:37;2.10;;;2.00;;
11638;SDS011;5875;35.940;126.892;2023-12-22T05:21:05;3.97;;;3.03;;
11638;SDS011;5875;35.940;126.892;2023-12-22T05:23:32;1.50;;;1.40;;
11638;SDS011;5875;35.940;126.892;2023-12-22T05:26:02;1.70;;;1.50;;
11638;SDS011;5875;35.940;126.892;2023-12-22T05:28:29;3.50;;;1.63;;
11638;SDS011;5875;35.940;126.892;2023-12-22T05:30:59;0.43;;;0.33;;
11638;SDS011;5875;35.940;126.892;2023-12-22T05:33:26;0.73;;;0.70;;
11638;SDS011;5875;35.940;126.892;2023-12-22T05:35:54;4.93;;;3.00;;
11638;SDS011;5875;35.940;126.892;2023-12-22T05:38:21;1.97;;;1.87;;
11638;SDS011;5875;35.940;126.892;2023-12-22T05:40:48;2.47;;;2.03;;
11638;SDS011;5875;35.940;126.892;2023-12-22T05:43:18;3.67;;;3.37;;
11638;SDS011;5875;35.940;126.892;2023-12-22T05:45:45;7.60;;;4.10;;
11638;SDS011;5875;35.940;126.892;2023-12-22T05:48:15;0.87;;;0.87;;
11638;SDS011;5875;35.940;126.892;2023-12-22T05:50:47;1.63;;;1.23;;
11638;SDS011;5875;35.940;126.892;2023-12-22T05:53:14;1.37;;;1.20;;
11638;SDS011;5875;35.940;126.892;2023-12-22T05:55:44;4.60;;;3.03;;
11638;SDS011;5875;35.940;126.892;2023-12-22T05:58:12;4.10;;;2.77;;
11638;SDS011;5875;35.940;126.892;2023-12-22T06:00:39;8.87;;;5.37;;
11638;SDS011;5875;35.940;126.892;2023-12-22T06:03:06;1.77;;;1.63;;
11638;SDS011;5875;35.940;126.892;2023-12-22T06:05:37;3.13;;;2.73;;
11638;SDS011;5875;35.940;126.892;2023-12-22T06:08:04;5.13;;;4.57;;
11638;SDS011;5875;35.940;126.892;2023-12-22T06:10:31;2.70;;;2.50;;
11638;SDS011;5875;35.940;126.892;2023-12-22T06:12:58;2.57;;;2.37;;
11638;SDS011;5875;35.940;126.892;2023-12-22T06:15:29;2.23;;;1.90;;
11638;SDS011;5875;35.940;126.892;2023-12-22T06:17:56;1.87;;;1.77;;
11638;SDS011;5875;35.940;126.892;2023-12-22T06:20:24;1.60;;;1.50;;
11638;SDS011;5875;35.940;126.892;2023-12-22T06:22:51;1.03;;;0.93;;
11638;SDS011;5875;35.940;126.892;2023-12-22T06:25:19;2.43;;;2.23;;
11638;SDS011;5875;35.940;126.892;2023-12-22T06:27:46;1.30;;;1.20;;
11638;SDS011;5875;35.940;126.892;2023-12-22T06:30:15;2.83;;;1.53;;
11638;SDS011;5875;35.940;126.892;2023-12-22T06:32:43;8.30;;;4.00;;
11638;SDS011;5875;35.940;126.892;2023-12-22T06:35:10;2.50;;;2.30;;
11638;SDS011;5875;35.940;126.892;2023-12-22T06:37:37;3.37;;;3.07;;
11638;SDS011;5875;35.940;126.892;2023-12-22T06:40:04;5.60;;;3.43;;
11638;SDS011;5875;35.940;126.892;2023-12-22T06:42:32;3.00;;;2.00;;
11638;SDS011;5875;35.940;126.892;2023-12-22T06:44:59;1.33;;;1.23;;
11638;SDS011;5875;35.940;126.892;2023-12-22T06:47:29;6.47;;;1.63;;
11638;SDS011;5875;35.940;126.892;2023-12-22T06:49:56;5.90;;;3.77;;
11638;SDS011;5875;35.940;126.892;2023-12-22T06:52:23;3.47;;;2.63;;
11638;SDS011;5875;35.940;126.892;2023-12-22T06:54:50;3.37;;;3.17;;
11638;SDS011;5875;35.940;126.892;2023-12-22T06:57:20;2.80;;;2.10;;
11638;SDS011;5875;35.940;126.892;2023-12-22T06:59:47;2.23;;;1.73;;
11638;SDS011;5875;35.940;126.892;2023-12-22T07:02:15;4.20;;;3.37;;
11638;SDS011;5875;35.940;126.892;2023-12-22T07:04:42;10.70;;;8.00;;
11638;SDS011;5875;35.940;126.892;2023-12-22T07:07:33;18.93;;;13.63;;
11638;SDS011;5875;35.940;126.892;2023-12-22T07:10:00;17.67;;;10.50;;
11638;SDS011;5875;35.940;126.892;2023-12-22T07:12:27;25.33;;;19.30;;
11638;SDS011;5875;35.940;126.892;2023-12-22T07:14:58;7.27;;;6.67;;
11638;SDS011;5875;35.940;126.892;2023-12-22T07:17:25;79.03;;;40.43;;
11638;SDS011;5875;35.940;126.892;2023-12-22T07:19:52;74.67;;;31.20;;
11638;SDS011;5875;35.940;126.892;2023-12-22T07:22:23;42.80;;;24.47;;
11638;SDS011;5875;35.940;126.892;2023-12-22T07:24:50;25.90;;;14.53;;
11638;SDS011;5875;35.940;126.892;2023-12-22T07:27:18;87.17;;;38.37;;
11638;SDS011;5875;35.940;126.892;2023-12-22T07:29:45;198.47;;;108.93;;
11638;SDS011;5875;35.940;126.892;2023-12-22T07:32:12;83.30;;;45.57;;
11638;SDS011;5875;35.940;126.892;2023-12-22T07:34:39;14.10;;;9.40;;
11638;SDS011;5875;35.940;126.892;2023-12-22T07:37:06;6.37;;;5.57;;
11638;SDS011;5875;35.940;126.892;2023-12-22T07:39:33;15.50;;;10.20;;
11638;SDS011;5875;35.940;126.892;2023-12-22T07:42:00;9.93;;;7.37;;
11638;SDS011;5875;35.940;126.892;2023-12-22T07:44:27;10.27;;;9.10;;
11638;SDS011;5875;35.940;126.892;2023-12-22T07:46:58;14.83;;;10.43;;
11638;SDS011;5875;35.940;126.892;2023-12-22T07:49:29;10.67;;;5.97;;
11638;SDS011;5875;35.940;126.892;2023-12-22T07:51:56;7.83;;;4.70;;
11638;SDS011;5875;35.940;126.892;2023-12-22T07:54:23;9.73;;;5.27;;
11638;SDS011;5875;35.940;126.892;2023-12-22T07:56:51;5.90;;;3.47;;
11638;SDS011;5875;35.940;126.892;2023-12-22T07:59:18;13.73;;;6.77;;
11638;SDS011;5875;35.940;126.892;2023-12-22T08:01:45;8.87;;;5.10;;
11638;SDS011;5875;35.940;126.892;2023-12-22T08:04:12;9.00;;;6.10;;
11638;SDS011;5875;35.940;126.892;2023-12-22T08:06:40;7.27;;;5.10;;
11638;SDS011;5875;35.940;126.892;2023-12-22T08:09:07;13.17;;;6.07;;
11638;SDS011;5875;35.940;126.892;2023-12-22T08:11:34;5.87;;;3.77;;
11638;SDS011;5875;35.940;126.892;2023-12-22T08:14:02;9.40;;;6.80;;
11638;SDS011;5875;35.940;126.892;2023-12-22T08:16:29;8.20;;;6.67;;
11638;SDS011;5875;35.940;126.892;2023-12-22T08:18:58;4.87;;;4.13;;
11638;SDS011;5875;35.940;126.892;2023-12-22T08:21:25;22.17;;;10.90;;
11638;SDS011;5875;35.940;126.892;2023-12-22T08:23:52;14.97;;;7.60;;
11638;SDS011;5875;35.940;126.892;2023-12-22T08:26:19;7.20;;;6.13;;
11638;SDS011;5875;35.940;126.892;2023-12-22T08:28:47;18.33;;;9.10;;
11638;SDS011;5875;35.940;126.892;2023-12-22T08:31:14;34.67;;;13.63;;
11638;SDS011;5875;35.940;126.892;2023-12-22T08:33:41;14.73;;;9.43;;
11638;SDS011;5875;35.940;126.892;2023-12-22T08:36:10;6.57;;;2.67;;
11638;SDS011;5875;35.940;126.892;2023-12-22T08:38:41;13.77;;;10.17;;
11638;SDS011;5875;35.940;126.892;2023-12-22T08:41:11;7.33;;;6.67;;
11638;SDS011;5875;35.940;126.892;2023-12-22T08:43:40;1.20;;;1.17;;
11638;SDS011;5875;35.940;126.892;2023-12-22T08:46:10;1.37;;;1.27;;
11638;SDS011;5875;35.940;126.892;2023-12-22T08:48:38;0.40;;;0.40;;
11638;SDS011;5875;35.940;126.892;2023-12-22T08:51:05;6.33;;;1.93;;
11638;SDS011;5875;35.940;126.892;2023-12-22T08:53:35;0.87;;;0.87;;
11638;SDS011;5875;35.940;126.892;2023-12-22T08:56:03;1.47;;;1.37;;
11638;SDS011;5875;35.940;126.892;2023-12-22T08:58:31;1.03;;;1.03;;
11638;SDS011;5875;35.940;126.892;2023-12-22T09:00:58;0.40;;;0.40;;
11638;SDS011;5875;35.940;126.892;2023-12-22T09:03:25;0.50;;;0.50;;
11638;SDS011;5875;35.940;126.892;2023-12-22T09:05:53;1.43;;;1.33;;
11638;SDS011;5875;35.940;126.892;2023-12-22T09:08:20;0.77;;;0.77;;
11638;SDS011;5875;35.940;126.892;2023-12-22T09:10:47;0.87;;;0.70;;
11638;SDS011;5875;35.940;126.892;2023-12-22T09:13:15;0.30;;;0.30;;
11638;SDS011;5875;35.940;126.892;2023-12-22T09:15:42;0.20;;;0.20;;
11638;SDS011;5875;35.940;126.892;2023-12-22T09:18:12;6.97;;;1.90;;
11638;SDS011;5875;35.940;126.892;2023-12-22T09:20:42;0.97;;;0.97;;
11638;SDS011;5875;35.940;126.892;2023-12-22T09:23:09;8.20;;;2.93;;
11638;SDS011;5875;35.940;126.892;2023-12-22T09:25:39;3.40;;;2.33;;
11638;SDS011;5875;35.940;126.892;2023-12-22T09:28:06;5.03;;;2.87;;
11638;SDS011;5875;35.940;126.892;2023-12-22T09:30:33;5.80;;;3.90;;
11638;SDS011;5875;35.940;126.892;2023-12-22T09:33:00;1.93;;;1.50;;
11638;SDS011;5875;35.940;126.892;2023-12-22T09:35:27;4.20;;;2.87;;
11638;SDS011;5875;35.940;126.892;2023-12-22T09:37:55;6.57;;;5.97;;
11638;SDS011;5875;35.940;126.892;2023-12-22T09:40:25;18.80;;;5.97;;
11638;SDS011;5875;35.940;126.892;2023-12-22T09:42:54;1.70;;;0.97;;
11638;SDS011;5875;35.940;126.892;2023-12-22T09:45:21;1.90;;;1.43;;
11638;SDS011;5875;35.940;126.892;2023-12-22T09:47:48;1.27;;;1.17;;
11638;SDS011;5875;35.940;126.892;2023-12-22T09:50:18;0.27;;;0.27;;
11638;SDS011;5875;35.940;126.892;2023-12-22T09:52:47;0.83;;;0.83;;
11638;SDS011;5875;35.940;126.892;2023-12-22T09:55:14;2.10;;;1.67;;
11638;SDS011;5875;35.940;126.892;2023-12-22T09:57:42;2.50;;;0.80;;
11638;SDS011;5875;35.940;126.892;2023-12-22T10:00:11;0.60;;;0.60;;
11638;SDS011;5875;35.940;126.892;2023-12-22T10:02:40;1.03;;;0.97;;
11638;SDS011;5875;35.940;126.892;2023-12-22T10:05:08;2.70;;;1.40;;
11638;SDS011;5875;35.940;126.892;2023-12-22T10:07:36;0.70;;;0.33;;
11638;SDS011;5875;35.940;126.892;2023-12-22T10:10:04;0.90;;;0.83;;
11638;SDS011;5875;35.940;126.892;2023-12-22T10:12:33;0.33;;;0.33;;
11638;SDS011;5875;35.940;126.892;2023-12-22T10:15:01;0.67;;;0.67;;
11638;SDS011;5875;35.940;126.892;2023-12-22T10:17:31;1.60;;;1.37;;
11638;SDS011;5875;35.940;126.892;2023-12-22T10:19:58;1.13;;;1.07;;
11638;SDS011;5875;35.940;126.892;2023-12-22T10:22:25;0.50;;;0.43;;
11638;SDS011;5875;35.940;126.892;2023-12-22T10:24:55;0.90;;;0.90;;
11638;SDS011;5875;35.940;126.892;2023-12-22T10:27:22;1.77;;;1.70;;
11638;SDS011;5875;35.940;126.892;2023-12-22T10:29:50;1.23;;;0.87;;
11638;SDS011;5875;35.940;126.892;2023-12-22T10:32:22;0.47;;;0.47;;
11638;SDS011;5875;35.940;126.892;2023-12-22T10:34:51;0.70;;;0.70;;
11638;SDS011;5875;35.940;126.892;2023-12-22T10:37:19;0.20;;;0.20;;
11638;SDS011;5875;35.940;126.892;2023-12-22T10:39:54;0.10;;;0.10;;
11638;SDS011;5875;35.940;126.892;2023-12-22T10:42:21;0.20;;;0.20;;
11638;SDS011;5875;35.940;126.892;2023-12-22T10:44:49;0.50;;;0.50;;
11638;SDS011;5875;35.940;126.892;2023-12-22T10:47:17;0.70;;;0.70;;
11638;SDS011;5875;35.940;126.892;2023-12-22T10:49:46;1.03;;;1.03;;
11638;SDS011;5875;35.940;126.892;2023-12-22T10:52:17;1.67;;;1.57;;
11638;SDS011;5875;35.940;126.892;2023-12-22T10:54:46;3.07;;;1.90;;
11638;SDS011;5875;35.940;126.892;2023-12-22T10:57:18;1.40;;;1.30;;
11638;SDS011;5875;35.940;126.892;2023-12-22T10:59:45;0.67;;;0.67;;
11638;SDS011;5875;35.940;126.892;2023-12-22T11:02:17;0.60;;;0.60;;
11638;SDS011;5875;35.940;126.892;2023-12-22T11:04:52;1.80;;;0.87;;
11638;SDS011;5875;35.940;126.892;2023-12-22T11:07:23;1.03;;;1.03;;
11638;SDS011;5875;35.940;126.892;2023-12-22T11:09:51;0.20;;;0.20;;
11638;SDS011;5875;35.940;126.892;2023-12-22T11:12:20;0.80;;;0.80;;
11638;SDS011;5875;35.940;126.892;2023-12-22T11:14:50;0.83;;;0.83;;
11638;SDS011;5875;35.940;126.892;2023-12-22T11:17:24;0.73;;;0.73;;
11638;SDS011;5875;35.940;126.892;2023-12-22T11:19:55;0.70;;;0.67;;
11638;SDS011;5875;35.940;126.892;2023-12-22T11:22:23;1.40;;;1.03;;
11638;SDS011;5875;35.940;126.892;2023-12-22T11:24:51;2.60;;;1.63;;
11638;SDS011;5875;35.940;126.892;2023-12-22T11:27:19;0.50;;;0.50;;
11638;SDS011;5875;35.940;126.892;2023-12-22T11:29:47;1.73;;;1.63;;
11638;SDS011;5875;35.940;126.892;2023-12-22T11:32:18;1.33;;;1.30;;
11638;SDS011;5875;35.940;126.892;2023-12-22T11:34:46;2.20;;;2.00;;
11638;SDS011;5875;35.940;126.892;2023-12-22T11:37:14;0.50;;;0.50;;
11638;SDS011;5875;35.940;126.892;2023-12-22T11:39:44;2.40;;;1.13;;
11638;SDS011;5875;35.940;126.892;2023-12-22T11:42:17;0.93;;;0.93;;
11638;SDS011;5875;35.940;126.892;2023-12-22T11:44:52;0.83;;;0.83;;
11638;SDS011;5875;35.940;126.892;2023-12-22T11:47:22;0.50;;;0.50;;
11638;SDS011;5875;35.940;126.892;2023-12-22T11:49:50;1.33;;;1.33;;
11638;SDS011;5875;35.940;126.892;2023-12-22T11:52:17;2.90;;;2.47;;
11638;SDS011;5875;35.940;126.892;2023-12-22T11:54:52;4.07;;;3.57;;
11638;SDS011;5875;35.940;126.892;2023-12-22T11:57:36;21.33;;;11.07;;
11638;SDS011;5875;35.940;126.892;2023-12-22T12:00:07;11.83;;;6.10;;
11638;SDS011;5875;35.940;126.892;2023-12-22T12:02:37;4.97;;;4.67;;
11638;SDS011;5875;35.940;126.892;2023-12-22T12:05:07;7.57;;;3.93;;
11638;SDS011;5875;35.940;126.892;2023-12-22T12:07:42;1.43;;;1.43;;
11638;SDS011;5875;35.940;126.892;2023-12-22T12:10:11;1.60;;;0.77;;
11638;SDS011;5875;35.940;126.892;2023-12-22T12:12:39;0.80;;;0.80;;
11638;SDS011;5875;35.940;126.892;2023-12-22T12:15:12;0.20;;;0.20;;
11638;SDS011;5875;35.940;126.892;2023-12-22T12:17:43;0.40;;;0.40;;
11638;SDS011;5875;35.940;126.892;2023-12-22T12:20:13;0.30;;;0.30;;
11638;SDS011;5875;35.940;126.892;2023-12-22T12:22:42;0.63;;;0.63;;
11638;SDS011;5875;35.940;126.892;2023-12-22T12:25:11;0.10;;;0.10;;
11638;SDS011;5875;35.940;126.892;2023-12-22T12:27:39;0.20;;;0.20;;
11638;SDS011;5875;35.940;126.892;2023-12-22T12:30:10;0.47;;;0.47;;
11638;SDS011;5875;35.940;126.892;2023-12-22T12:32:42;0.10;;;0.10;;
11638;SDS011;5875;35.940;126.892;2023-12-22T12:35:13;0.47;;;0.47;;
11638;SDS011;5875;35.940;126.892;2023-12-22T12:37:41;0.40;;;0.40;;
11638;SDS011;5875;35.940;126.892;2023-12-22T12:40:14;1.50;;;1.17;;
11638;SDS011;5875;35.940;126.892;2023-12-22T12:42:44;0.33;;;0.33;;
11638;SDS011;5875;35.940;126.892;2023-12-22T12:45:14;2.93;;;2.10;;
11638;SDS011;5875;35.940;126.892;2023-12-22T12:50:27;1.60;;;1.50;;
11638;SDS011;5875;35.940;126.892;2023-12-22T12:52:58;0.67;;;0.67;;
11638;SDS011;5875;35.940;126.892;2023-12-22T12:55:25;1.50;;;1.40;;
11638;SDS011;5875;35.940;126.892;2023-12-22T12:57:53;1.23;;;1.13;;
11638;SDS011;5875;35.940;126.892;2023-12-22T13:00:31;1.20;;;0.47;;
11638;SDS011;5875;35.940;126.892;2023-12-22T13:03:04;0.53;;;0.53;;
11638;SDS011;5875;35.940;126.892;2023-12-22T13:05:32;1.40;;;1.40;;
11638;SDS011;5875;35.940;126.892;2023-12-22T13:08:12;2.33;;;1.57;;
11638;SDS011;5875;35.940;126.892;2023-12-22T13:10:39;1.60;;;1.43;;
11638;SDS011;5875;35.940;126.892;2023-12-22T13:13:07;1.93;;;1.83;;
11638;SDS011;5875;35.940;126.892;2023-12-22T13:15:34;9.20;;;7.10;;
11638;SDS011;5875;35.940;126.892;2023-12-22T13:18:01;5.00;;;3.60;;
11638;SDS011;5875;35.940;126.892;2023-12-22T13:20:29;3.00;;;1.70;;
11638;SDS011;5875;35.940;126.892;2023-12-22T13:22:56;4.97;;;2.73;;
11638;SDS011;5875;35.940;126.892;2023-12-22T13:25:24;4.60;;;3.87;;
11638;SDS011;5875;35.940;126.892;2023-12-22T13:27:55;3.67;;;3.20;;
11638;SDS011;5875;35.940;126.892;2023-12-22T13:30:35;2.60;;;1.60;;
11638;SDS011;5875;35.940;126.892;2023-12-22T13:33:06;1.27;;;0.87;;
11638;SDS011;5875;35.940;126.892;2023-12-22T13:35:34;0.77;;;0.77;;
11638;SDS011;5875;35.940;126.892;2023-12-22T13:38:05;1.10;;;1.10;;
11638;SDS011;5875;35.940;126.892;2023-12-22T13:40:32;0.70;;;0.70;;
11638;SDS011;5875;35.940;126.892;2023-12-22T13:43:01;0.83;;;0.83;;
11638;SDS011;5875;35.940;126.892;2023-12-22T13:45:28;7.07;;;4.07;;
11638;SDS011;5875;35.940;126.892;2023-12-22T13:48:00;16.37;;;3.93;;
11638;SDS011;5875;35.940;126.892;2023-12-22T13:50:27;2.40;;;2.17;;
11638;SDS011;5875;35.940;126.892;2023-12-22T13:52:54;2.77;;;2.57;;
11638;SDS011;5875;35.940;126.892;2023-12-22T13:55:24;2.17;;;1.93;;
11638;SDS011;5875;35.940;126.892;2023-12-22T13:57:58;1.20;;;1.20;;
11638;SDS011;5875;35.940;126.892;2023-12-22T14:00:29;2.20;;;1.77;;
11638;SDS011;5875;35.940;126.892;2023-12-22T14:02:57;0.93;;;0.93;;
11638;SDS011;5875;35.940;126.892;2023-12-22T14:05:24;0.70;;;0.70;;
11638;SDS011;5875;35.940;126.892;2023-12-22T14:07:56;4.80;;;3.57;;
11638;SDS011;5875;35.940;126.892;2023-12-22T14:10:23;3.00;;;2.70;;
11638;SDS011;5875;35.940;126.892;2023-12-22T14:12:50;0.97;;;0.97;;
11638;SDS011;5875;35.940;126.892;2023-12-22T14:15:18;2.53;;;2.33;;
11638;SDS011;5875;35.940;126.892;2023-12-22T14:17:45;1.73;;;1.63;;
11638;SDS011;5875;35.940;126.892;2023-12-22T14:20:12;1.70;;;1.60;;
11638;SDS011;5875;35.940;126.892;2023-12-22T14:22:42;0.57;;;0.57;;
11638;SDS011;5875;35.940;126.892;2023-12-22T14:25:09;3.53;;;3.33;;
11638;SDS011;5875;35.940;126.892;2023-12-22T14:27:36;0.63;;;0.63;;
11638;SDS011;5875;35.940;126.892;2023-12-22T14:30:04;1.40;;;0.67;;
11638;SDS011;5875;35.940;126.892;2023-12-22T14:32:31;0.33;;;0.33;;
11638;SDS011;5875;35.940;126.892;2023-12-22T14:34:58;0.67;;;0.67;;
11638;SDS011;5875;35.940;126.892;2023-12-22T14:37:26;0.77;;;0.57;;
11638;SDS011;5875;35.940;126.892;2023-12-22T14:39:53;1.23;;;1.00;;
11638;SDS011;5875;35.940;126.892;2023-12-22T14:42:20;2.53;;;2.33;;